Time;durP1;ratioP1;P1;durP2;ratioP2;P2;SDS_P1;SDS_P2;PMS_P1;PMS_P2;Temp;Humidity;BMP_temperature;BMP_pressure;BME280_temperature;BME280_humidity;BME280_pressure;Samples;Min_cycle;Max_cycle;Signal;HPM_P1;HPM_P2
2022/06/05 00:00:54;;;;;;;;;;;;;;;16.56;64.19;99458.68;1692249;85;20138;-63
2022/06/05 00:03:31;;;;;;;;;;;;;;;16.56;63.73;99456.49;1686268;85;20128;-62
2022/06/05 00:06:04;;;;;;;;;;;;;;;16.57;63.76;99463.64;1691389;84;20847;-62
2022/06/05 00:08:37;;;;;;;;;;;;;;;16.57;63.04;99467.80;1692397;85;20128;-62
2022/06/05 00:11:03;;;;;;;;;;;;;;;16.58;64.36;99465.25;1692775;85;21202;-62
2022/06/05 00:13:49;;;;;;;;;;;;;;;16.57;64.75;99467.80;1692277;85;20160;-62
2022/06/05 00:16:18;;;;;;;;;;;;;;;16.54;64.54;99460.20;1692264;85;20464;-64
2022/06/05 00:18:45;;;;;;;;;;;;;;;16.55;64.76;99468.16;1681871;85;20149;-62
2022/06/05 00:21:12;;;;;;;;;;;;;;;16.56;64.85;99472.54;1684310;85;20460;-64
2022/06/05 00:23:39;;;;;;;;;;;;;;;16.57;64.98;99474.73;1691871;85;21124;-63
2022/06/05 00:26:27;;;;;;;;;;;;;;;16.55;64.54;99465.97;1674538;85;20172;-63
2022/06/05 00:29:01;;;;;;;;;;;;;;;16.52;65.03;99463.33;1690909;84;20143;-63
2022/06/05 00:31:34;;;;;;;;;;;;;;;16.48;65.89;99467.39;1692131;84;20128;-64
2022/06/05 00:34:01;;;;;;;;;;;;;;;16.43;66.60;99455.19;1692000;85;20466;-65
2022/06/05 00:36:43;;;;;;;;;;;;;;;16.34;67.45;99453.17;1691863;85;21148;-66
2022/06/05 00:39:28;;;;;;;;;;;;;;;16.28;68.00;99451.02;1679746;85;20080;-62
2022/06/05 00:42:10;;;;;;;;;;;;;;;16.21;68.30;99439.75;1692655;85;20099;-62
2022/06/05 00:44:42;;;;;;;;;;;;;;;16.14;68.63;99433.48;1692472;85;20150;-62
2022/06/05 00:47:11;;;;;;;;;;;;;;;16.11;67.67;99420.34;1692112;84;20136;-63
2022/06/05 00:49:56;;;;;;;;;;;;;;;16.10;67.30;99424.27;1692808;85;21131;-63
2022/06/05 00:52:24;;;;;;;;;;;;;;;16.12;67.11;99424.14;1693049;85;20869;-63
2022/06/05 00:54:51;;;;;;;;;;;;;;;16.13;67.17;99426.33;1692661;85;20124;-63
2022/06/05 00:57:18;;;;;;;;;;;;;;;16.13;66.93;99423.56;1673731;85;20772;-63
2022/06/05 00:59:46;;;;;;;;;;;;;;;16.17;66.01;99426.61;1672898;85;20120;-63
2022/06/05 01:02:14;;;;;;;;;;;;;;;16.22;65.67;99430.28;1673108;86;21170;-64
2022/06/05 01:04:43;;;;;;;;;;;;;;;16.27;65.62;99439.72;1672981;86;20428;-64
2022/06/05 01:07:09;;;;;;;;;;;;;;;16.32;65.08;99438.06;1657322;86;20100;-63
2022/06/05 01:09:37;;;;;;;;;;;;;;;16.35;66.06;99439.55;1673103;86;20094;-64
2022/06/05 01:12:13;;;;;;;;;;;;;;;16.37;66.54;99447.50;1673244;85;20472;-64
2022/06/05 01:15:09;;;;;;;;;;;;;;;16.36;66.78;99455.59;1674537;85;21180;-64
2022/06/05 01:17:39;;;;;;;;;;;;;;;16.34;68.04;99446.83;1692828;85;20166;-63
2022/06/05 01:20:22;;;;;;;;;;;;;;;16.34;69.22;99444.86;1692502;85;20163;-63
2022/06/05 01:22:58;;;;;;;;;;;;;;;16.32;69.99;99430.56;1692547;85;20151;-63
2022/06/05 01:25:43;;;;;;;;;;;;;;;16.27;70.95;99425.28;1692180;84;20170;-62
2022/06/05 01:28:15;;;;;;;;;;;;;;;16.21;71.24;99426.70;1692756;85;21136;-63
2022/06/05 01:30:54;;;;;;;;;;;;;;;16.15;71.71;99433.70;1692371;85;20127;-64
2022/06/05 01:33:26;;;;;;;;;;;;;;;16.14;70.91;99435.66;1686222;84;20194;-64
2022/06/05 01:36:11;;;;;;;;;;;;;;;16.14;72.59;99433.48;1674796;85;20474;-63
2022/06/05 01:38:59;;;;;;;;;;;;;;;16.10;72.84;99431.19;1692741;85;20143;-64
2022/06/05 01:41:32;;;;;;;;;;;;;;;16.09;74.34;99429.58;1672865;85;21105;-63
2022/06/05 01:43:59;;;;;;;;;;;;;;;16.04;75.55;99422.92;1692381;84;20126;-63
2022/06/05 01:46:33;;;;;;;;;;;;;;;16.01;76.03;99420.28;1692648;85;20118;-62
2022/06/05 01:49:02;;;;;;;;;;;;;;;15.98;75.65;99429.87;1674478;85;39167;-63
2022/06/05 01:51:34;;;;;;;;;;;;;;;15.94;76.19;99419.28;1692704;85;20486;-64
2022/06/05 01:54:03;;;;;;;;;;;;;;;15.91;76.68;99412.48;1692650;85;21261;-64
2022/06/05 01:56:36;;;;;;;;;;;;;;;15.90;77.69;99415.61;1697652;83;20200;-65
2022/06/05 01:59:15;;;;;;;;;;;;;;;15.87;78.05;99412.16;1688949;84;20208;-65
2022/06/05 02:01:44;;;;;;;;;;;;;;;15.82;77.79;99415.41;1688947;84;20144;-64
2022/06/05 02:04:17;;;;;;;;;;;;;;;15.78;77.88;99411.75;1688818;84;20170;-63
2022/06/05 02:06:53;;;;;;;;;;;;;;;15.76;78.97;99404.38;1688861;85;21808;-64
2022/06/05 02:09:33;;;;;;;;;;;;;;;15.73;78.82;99402.31;1688722;84;20132;-64
2022/06/05 02:12:02;;;;;;;;;;;;;;;15.71;79.64;99401.05;1687324;84;20124;-63
2022/06/05 02:14:29;;;;;;;;;;;;;;;15.70;80.47;99385.61;1688786;85;20128;-71
2022/06/05 02:16:55;;;;;;;;;;;;;;;15.68;81.16;99388.73;1688877;85;20188;-65
2022/06/05 02:19:22;;;;;;;;;;;;;;;15.66;81.70;99391.63;1688769;85;21245;-66
2022/06/05 02:21:51;;;;;;;;;;;;;;;15.65;82.20;99392.78;1704847;83;20190;-67
2022/06/05 02:24:17;;;;;;;;;;;;;;;15.64;82.02;99389.79;1715265;83;20164;-68
2022/06/05 02:26:44;;;;;;;;;;;;;;;15.64;82.41;99387.83;1693347;83;20178;-70
2022/06/05 02:29:16;;;;;;;;;;;;;;;15.64;82.79;99389.79;1701299;83;20178;-68
2022/06/05 02:32:21;;;;;;;;;;;;;;;15.64;82.71;99385.64;1716909;83;21774;-69
2022/06/05 02:34:56;;;;;;;;;;;;;;;15.64;82.11;99394.75;1717155;83;20468;-65
2022/06/05 02:37:29;;;;;;;;;;;;;;;15.66;81.54;99394.39;1717162;83;20112;-65
2022/06/05 02:40:03;;;;;;;;;;;;;;;15.69;80.08;99393.69;1717450;83;20472;-65
2022/06/05 02:42:42;;;;;;;;;;;;;;;15.73;79.23;99402.89;1717442;83;20164;-68
2022/06/05 02:45:19;;;;;;;;;;;;;;;15.78;78.29;99405.41;1661882;83;21164;-70
2022/06/05 02:47:53;;;;;;;;;;;;;;;15.82;77.67;99394.66;1717441;83;20154;-68
2022/06/05 02:50:41;;;;;;;;;;;;;;;15.86;75.19;99386.45;1717471;83;20125;-69
2022/06/05 02:53:08;;;;;;;;;;;;;;;15.89;74.08;99377.44;1701706;83;20146;-67
2022/06/05 02:55:36;;;;;;;;;;;;;;;15.96;73.08;99382.36;1717685;83;20130;-69
2022/06/05 02:58:04;;;;;;;;;;;;;;;16.02;72.10;99380.94;1730700;83;21153;-68
2022/06/05 03:00:32;;;;;;;;;;;;;;;16.08;71.02;99385.05;1730652;83;20153;-69
2022/06/05 03:05:44;;;;;;;;;;;;;;;16.22;71.29;99387.36;1730774;83;20155;-67
2022/06/05 03:08:13;;;;;;;;;;;;;;;16.25;71.49;99387.45;1730592;83;20141;-69
2022/06/05 03:10:40;;;;;;;;;;;;;;;16.26;70.87;99395.98;1727923;83;21165;-68
2022/06/05 03:13:07;;;;;;;;;;;;;;;16.29;70.96;99400.00;1730499;83;20484;-67
2022/06/05 03:15:33;;;;;;;;;;;;;;;16.30;71.75;99401.03;1730677;83;20149;-70
2022/06/05 03:18:00;;;;;;;;;;;;;;;16.30;71.45;99402.41;1730631;83;20149;-71
2022/06/05 03:20:27;;;;;;;;;;;;;;;16.28;71.27;99400.58;1730545;83;20181;-66
2022/06/05 03:22:55;;;;;;;;;;;;;;;16.27;71.00;99397.59;1730242;83;21150;-65
2022/06/05 03:25:23;;;;;;;;;;;;;;;16.28;71.33;99392.27;1730883;83;20476;-66
2022/06/05 03:27:53;;;;;;;;;;;;;;;16.29;71.61;99387.53;1730632;83;20112;-66
2022/06/05 03:30:19;;;;;;;;;;;;;;;16.29;72.17;99385.57;1730461;83;20145;-67
2022/06/05 03:32:46;;;;;;;;;;;;;;;16.32;72.88;99390.39;1730605;83;20489;-65
2022/06/05 03:35:15;;;;;;;;;;;;;;;16.32;73.10;99384.05;1730656;83;20465;-65
2022/06/05 03:37:42;;;;;;;;;;;;;;;16.34;74.18;99392.81;1721867;83;20115;-66
2022/06/05 03:40:14;;;;;;;;;;;;;;;16.34;74.14;99384.50;1711648;83;20211;-65
2022/06/05 03:42:42;;;;;;;;;;;;;;;16.34;73.68;99391.42;1701526;84;20139;-65
2022/06/05 03:45:13;;;;;;;;;;;;;;;16.34;73.10;99390.84;1701559;84;20458;-66
2022/06/05 03:47:40;;;;;;;;;;;;;;;16.36;73.09;99390.48;1729444;83;21145;-64
2022/06/05 03:50:09;;;;;;;;;;;;;;;16.37;73.37;99392.90;1728970;83;20113;-65
2022/06/05 03:52:35;;;;;;;;;;;;;;;16.38;74.17;99392.31;1729876;83;20160;-65
2022/06/05 03:55:02;;;;;;;;;;;;;;;16.39;75.77;99399.47;1728992;83;20129;-66
2022/06/05 03:57:31;;;;;;;;;;;;;;;16.42;76.68;99398.75;1712986;83;20469;-66
2022/06/05 03:59:58;;;;;;;;;;;;;;;16.45;76.39;99398.03;1705718;84;21137;-66
2022/06/05 04:02:25;;;;;;;;;;;;;;;16.46;76.62;99396.88;1705859;84;20145;-66
2022/06/05 04:04:52;;;;;;;;;;;;;;;16.48;76.12;99400.89;1706449;84;20202;-64
2022/06/05 04:07:21;;;;;;;;;;;;;;;16.50;75.38;99401.34;1705793;84;20181;-64
2022/06/05 04:09:47;;;;;;;;;;;;;;;16.57;75.57;99405.45;1705672;84;20113;-65
2022/06/05 04:12:15;;;;;;;;;;;;;;;16.62;75.66;99401.83;1705697;84;22110;-65
2022/06/05 04:14:41;;;;;;;;;;;;;;;16.69;76.99;99406.19;1705607;84;20473;-65
2022/06/05 04:17:10;;;;;;;;;;;;;;;16.73;79.41;99404.88;1705805;84;20126;-64
2022/06/05 04:19:37;;;;;;;;;;;;;;;16.74;79.43;99400.95;1705694;83;20110;-64
2022/06/05 04:22:04;;;;;;;;;;;;;;;16.75;79.44;99417.80;1705720;84;20150;-64
2022/06/05 04:24:32;;;;;;;;;;;;;;;16.72;77.81;99426.25;1705757;83;20137;-64
2022/06/05 04:26:58;;;;;;;;;;;;;;;16.73;76.92;99431.22;1705741;84;20146;-64
2022/06/05 04:29:26;;;;;;;;;;;;;;;16.73;77.46;99427.06;1705760;84;20110;-63
2022/06/05 04:31:55;;;;;;;;;;;;;;;16.72;79.29;99427.64;1705803;84;20645;-63
2022/06/05 04:34:22;;;;;;;;;;;;;;;16.70;80.07;99430.55;1706088;83;20179;-63
2022/06/05 04:36:49;;;;;;;;;;;;;;;16.67;80.14;99429.87;1705785;84;21132;-64
2022/06/05 04:39:15;;;;;;;;;;;;;;;16.66;81.82;99431.04;1705652;83;20122;-63
2022/06/05 04:41:42;;;;;;;;;;;;;;;16.63;82.22;99424.80;1705692;84;20138;-64
2022/06/05 04:44:11;;;;;;;;;;;;;;;16.61;81.97;99425.73;1705628;84;20146;-64
2022/06/05 04:46:38;;;;;;;;;;;;;;;16.59;83.23;99428.06;1699448;83;20122;-64
2022/06/05 04:49:07;;;;;;;;;;;;;;;16.59;84.48;99426.68;1705686;84;21219;-63
2022/06/05 04:51:36;;;;;;;;;;;;;;;16.60;84.47;99418.01;1705591;84;20115;-64
2022/06/05 04:54:03;;;;;;;;;;;;;;;16.61;83.90;99418.81;1705696;84;20150;-64
2022/06/05 04:56:30;;;;;;;;;;;;;;;16.63;83.84;99419.26;1705600;83;20125;-64
2022/06/05 04:58:56;;;;;;;;;;;;;;;16.65;83.88;99426.08;1705736;84;20133;-64
2022/06/05 05:01:25;;;;;;;;;;;;;;;16.67;84.85;99426.53;1705782;83;21097;-64
2022/06/05 05:03:55;;;;;;;;;;;;;;;16.69;85.63;99427.55;1705837;84;20114;-64
2022/06/05 05:06:21;;;;;;;;;;;;;;;16.74;86.20;99433.62;1706404;82;20264;-64
2022/06/05 05:08:49;;;;;;;;;;;;;;;16.80;85.40;99435.52;1705659;84;20454;-64
2022/06/05 05:11:15;;;;;;;;;;;;;;;16.82;84.70;99438.73;1705715;84;20181;-64
2022/06/05 05:13:42;;;;;;;;;;;;;;;16.86;83.01;99442.39;1705768;83;21146;-64
2022/06/05 05:16:09;;;;;;;;;;;;;;;16.87;83.18;99448.16;1705582;84;20102;-64
2022/06/05 05:18:36;;;;;;;;;;;;;;;16.94;83.16;99448.91;1705717;84;20450;-65
2022/06/05 05:21:11;;;;;;;;;;;;;;;17.00;81.62;99457.98;1705701;83;20150;-63
2022/06/05 05:23:38;;;;;;;;;;;;;;;17.06;78.33;99462.09;1706078;84;20150;-64
2022/06/05 05:26:08;;;;;;;;;;;;;;;17.07;76.59;99461.50;1705637;84;22037;-64
2022/06/05 05:28:35;;;;;;;;;;;;;;;17.09;77.15;99468.88;1705571;84;20118;-64
2022/06/05 05:31:02;;;;;;;;;;;;;;;17.13;77.61;99471.95;1705715;84;20475;-65
2022/06/05 05:33:29;;;;;;;;;;;;;;;17.18;76.92;99480.59;1705653;84;20583;-64
2022/06/05 05:35:55;;;;;;;;;;;;;;;17.21;76.28;99480.45;1705968;83;20153;-64
2022/06/05 05:38:21;;;;;;;;;;;;;;;17.23;76.19;99483.66;1706138;84;21122;-65
2022/06/05 05:43:33;;;;;;;;;;;;;;;17.20;76.32;99494.90;1705698;84;20471;-65
2022/06/05 05:46:00;;;;;;;;;;;;;;;17.19;75.89;99497.45;1705673;83;20119;-65
2022/06/05 05:48:26;;;;;;;;;;;;;;;17.16;75.49;99501.75;1705675;84;20211;-66
2022/06/05 05:50:53;;;;;;;;;;;;;;;17.15;75.30;99497.36;1706377;84;21142;-65
2022/06/05 05:53:19;;;;;;;;;;;;;;;17.16;75.10;99499.56;1696214;84;20105;-63
2022/06/05 05:55:46;;;;;;;;;;;;;;;17.15;75.42;99498.75;1703876;84;20506;-65
2022/06/05 05:58:12;;;;;;;;;;;;;;;17.15;75.15;99501.52;1723677;83;20168;-65
2022/06/05 06:00:39;;;;;;;;;;;;;;;17.16;75.82;99496.20;1725953;83;20456;-64
2022/06/05 06:03:06;;;;;;;;;;;;;;;17.13;74.51;99496.92;1729563;83;21201;-64
2022/06/05 06:05:32;;;;;;;;;;;;;;;17.12;74.73;99501.44;1729021;83;20101;-64
2022/06/05 06:08:00;;;;;;;;;;;;;;;17.12;75.30;99500.05;1727652;83;20180;-67
2022/06/05 06:10:26;;;;;;;;;;;;;;;17.11;74.95;99497.86;1728911;83;20195;-70
2022/06/05 06:12:53;;;;;;;;;;;;;;;17.12;75.05;99498.09;1729016;83;20145;-68
2022/06/05 06:15:21;;;;;;;;;;;;;;;17.16;75.53;99500.95;1728897;83;20121;-69
2022/06/05 06:17:48;;;;;;;;;;;;;;;17.19;74.46;99503.00;1728947;83;20149;-69
2022/06/05 06:20:14;;;;;;;;;;;;;;;17.27;75.38;99498.42;1728666;83;20441;-72
2022/06/05 06:22:43;;;;;;;;;;;;;;;17.35;75.65;99491.25;1726743;83;20169;-70
2022/06/05 06:25:11;;;;;;;;;;;;;;;17.43;75.07;99489.44;1729320;83;20157;-69
2022/06/05 06:27:38;;;;;;;;;;;;;;;17.49;74.18;99480.47;1729089;83;21178;-72
2022/06/05 06:30:05;;;;;;;;;;;;;;;17.57;73.81;99477.27;1729038;83;20145;-72
2022/06/05 06:32:35;;;;;;;;;;;;;;;17.62;73.41;99477.56;1729044;83;20113;-71
2022/06/05 06:35:01;;;;;;;;;;;;;;;17.66;72.02;99465.40;1729133;83;20181;-68
2022/06/05 06:37:29;;;;;;;;;;;;;;;17.70;72.42;99474.61;1728941;83;20468;-68
2022/06/05 06:39:55;;;;;;;;;;;;;;;17.74;72.63;99468.55;1728829;83;21134;-69
2022/06/05 06:42:21;;;;;;;;;;;;;;;17.74;71.43;99464.38;1728409;83;20121;-69
2022/06/05 06:44:49;;;;;;;;;;;;;;;17.74;71.06;99462.19;1728909;83;20137;-70
2022/06/05 06:47:16;;;;;;;;;;;;;;;17.73;71.10;99460.00;1729024;83;20659;-72
2022/06/05 06:49:42;;;;;;;;;;;;;;;17.74;71.34;99464.38;1729205;83;20121;-71
2022/06/05 06:52:08;;;;;;;;;;;;;;;17.73;71.55;99465.55;1728921;83;21534;-72
2022/06/05 06:54:35;;;;;;;;;;;;;;;17.71;71.19;99468.47;1729223;83;20223;-69
2022/06/05 06:57:02;;;;;;;;;;;;;;;17.74;71.21;99474.68;1726540;83;20215;-70
2022/06/05 06:59:28;;;;;;;;;;;;;;;17.74;70.54;99469.13;1728781;83;20137;-83
2022/06/05 07:01:55;;;;;;;;;;;;;;;17.74;70.30;99469.13;1728988;83;20144;-79
2022/06/05 07:04:23;;;;;;;;;;;;;;;17.75;70.65;99470.16;1728934;83;20129;-74
2022/06/05 07:06:51;;;;;;;;;;;;;;;17.76;70.72;99468.18;1728912;83;20504;-74
2022/06/05 07:09:18;;;;;;;;;;;;;;;17.76;70.89;99468.18;1729570;83;20149;-85
2022/06/05 07:11:44;;;;;;;;;;;;;;;17.74;71.56;99459.41;1729172;83;20137;-74
2022/06/05 07:14:10;;;;;;;;;;;;;;;17.76;72.47;99459.85;1729207;83;20121;-76
2022/06/05 07:16:38;;;;;;;;;;;;;;;17.75;72.25;99456.86;1729116;83;21784;-75
2022/06/05 07:19:05;;;;;;;;;;;;;;;17.72;72.40;99456.20;1728977;83;20149;-84
2022/06/05 07:21:31;;;;;;;;;;;;;;;17.70;73.25;99459.92;1729067;83;20109;-75
2022/06/05 07:23:59;;;;;;;;;;;;;;;17.74;73.88;99460.80;1728988;83;20148;-76
2022/06/05 07:26:29;;;;;;;;;;;;;;;17.76;75.00;99457.88;1729051;83;20551;-73
2022/06/05 07:28:56;;;;;;;;;;;;;;;17.77;75.86;99459.48;1728667;83;21173;-70
2022/06/05 07:31:23;;;;;;;;;;;;;;;17.80;76.09;99463.50;1728909;83;20125;-72
2022/06/05 07:33:49;;;;;;;;;;;;;;;17.83;76.34;99461.38;1729120;83;20121;-70
2022/06/05 07:36:17;;;;;;;;;;;;;;;17.84;75.72;99474.69;1728867;83;20700;-73
2022/06/05 07:38:44;;;;;;;;;;;;;;;17.86;76.25;99466.20;1729020;83;20117;-72
2022/06/05 07:41:26;;;;;;;;;;;;;;;17.91;76.36;99465.11;1729086;83;21129;-74
2022/06/05 07:43:53;;;;;;;;;;;;;;;17.94;77.03;99471.28;1728404;83;20149;-71
2022/06/05 07:46:20;;;;;;;;;;;;;;;17.97;78.18;99472.75;1729145;83;20452;-73
2022/06/05 07:48:47;;;;;;;;;;;;;;;18.02;78.61;99474.42;1729019;83;20152;-75
2022/06/05 07:56:49;;;;;;;;;;;;;;;18.20;77.99;99463.66;1728964;83;20113;-72
2022/06/05 07:59:15;;;;;;;;;;;;;;;18.25;77.18;99465.55;1703875;83;20167;-73
2022/06/05 08:01:44;;;;;;;;;;;;;;;18.28;76.67;99464.81;1700897;84;20126;-74
2022/06/05 08:04:11;;;;;;;;;;;;;;;18.34;77.37;99461.14;1700936;84;20147;-74
2022/06/05 08:06:39;;;;;;;;;;;;;;;18.40;77.61;99467.41;1701070;84;21689;-71
2022/06/05 08:09:07;;;;;;;;;;;;;;;18.44;77.15;99466.09;1700924;83;20461;-71
2022/06/05 08:11:34;;;;;;;;;;;;;;;18.46;76.24;99470.11;1700896;84;20118;-70
2022/06/05 08:14:01;;;;;;;;;;;;;;;18.51;77.17;99466.19;1701076;84;20678;-69
2022/06/05 08:16:28;;;;;;;;;;;;;;;18.58;75.88;99475.23;1700986;84;20127;-72
2022/06/05 08:18:54;;;;;;;;;;;;;;;18.60;74.59;99474.28;1701087;83;21253;-71
2022/06/05 08:21:23;;;;;;;;;;;;;;;18.54;75.72;99473.78;1700959;83;20450;-72
2022/06/05 08:23:50;;;;;;;;;;;;;;;18.51;76.13;99478.70;1700924;84;20146;-73
2022/06/05 08:26:17;;;;;;;;;;;;;;;18.51;76.78;99472.33;1700990;84;20114;-72
2022/06/05 08:28:44;;;;;;;;;;;;;;;18.54;77.26;99477.15;1700956;84;20126;-71
2022/06/05 08:31:11;;;;;;;;;;;;;;;18.59;76.50;99481.02;1704552;83;21153;-69
2022/06/05 08:33:38;;;;;;;;;;;;;;;18.56;76.17;99474.80;1701154;84;20460;-71
2022/06/05 08:36:05;;;;;;;;;;;;;;;18.51;75.34;99471.74;1700971;84;20126;-70
2022/06/05 08:41:30;;;;;;;;;;;;;;;18.47;74.77;99477.86;1702534;84;20170;-70
2022/06/05 08:44:01;;;;;;;;;;;;;;;18.46;74.75;99481.81;1702464;84;21771;-70
2022/06/05 08:46:48;;;;;;;;;;;;;;;18.53;75.06;99479.12;1701737;84;20465;-69
2022/06/05 08:49:18;;;;;;;;;;;;;;;18.58;75.48;99482.98;1700927;83;20498;-69
2022/06/05 08:51:49;;;;;;;;;;;;;;;18.62;75.29;99477.52;1700828;84;20174;-68
2022/06/05 08:54:44;;;;;;;;;;;;;;;18.63;74.68;99481.91;1701075;84;20191;-67
2022/06/05 08:57:17;;;;;;;;;;;;;;;18.61;74.58;99482.87;1700918;84;21129;-69
2022/06/05 08:59:50;;;;;;;;;;;;;;;18.56;75.27;99477.58;1704708;83;20150;-66
2022/06/05 09:02:23;;;;;;;;;;;;;;;18.53;76.42;99484.69;1705695;84;20130;-67
2022/06/05 09:05:06;;;;;;;;;;;;;;;18.51;77.42;99490.40;1675799;84;20126;-67
2022/06/05 09:07:42;;;;;;;;;;;;;;;18.53;77.71;99483.88;1675259;84;20481;-70
2022/06/05 09:10:15;;;;;;;;;;;;;;;18.55;78.13;99485.70;1705965;84;21835;-70
2022/06/05 09:12:52;;;;;;;;;;;;;;;18.53;79.01;99483.88;1705762;84;20458;-69
2022/06/05 09:15:32;;;;;;;;;;;;;;;18.53;79.88;99483.30;1717547;82;20126;-69
2022/06/05 09:18:00;;;;;;;;;;;;;;;18.53;81.47;99479.72;1705652;84;20102;-69
2022/06/05 09:20:39;;;;;;;;;;;;;;;18.52;82.46;99485.86;1705622;84;20507;-69
2022/06/05 09:23:09;;;;;;;;;;;;;;;18.49;82.31;99483.23;1712115;82;21325;-68
2022/06/05 09:25:40;;;;;;;;;;;;;;;18.42;82.65;99477.58;1672604;85;20157;-72
2022/06/05 09:28:14;;;;;;;;;;;;;;;18.35;83.36;99475.25;1676311;85;20075;-69
2022/06/05 09:31:09;;;;;;;;;;;;;;;18.25;84.37;99477.25;1666366;85;20107;-70
2022/06/05 09:33:37;;;;;;;;;;;;;;;18.18;84.82;99482.08;1676102;84;20110;-69
2022/06/05 09:36:05;;;;;;;;;;;;;;;18.12;85.43;99491.30;1676188;85;21782;-68
2022/06/05 09:38:43;;;;;;;;;;;;;;;18.03;86.03;99496.86;1676106;85;20091;-68
2022/06/05 09:41:16;;;;;;;;;;;;;;;17.93;86.98;99494.09;1676030;85;20103;-69
2022/06/05 09:44:20;;;;;;;;;;;;;;;17.83;88.14;99501.64;1676150;85;20123;-68
2022/06/05 09:46:59;;;;;;;;;;;;;;;17.74;89.60;99500.47;1676239;85;20183;-71
2022/06/05 09:49:35;;;;;;;;;;;;;;;17.62;91.32;99506.13;1676369;85;21123;-69
2022/06/05 09:52:14;;;;;;;;;;;;;;;17.57;92.90;99509.19;1675827;84;20402;-72
2022/06/05 09:54:44;;;;;;;;;;;;;;;17.53;93.83;99511.08;1683316;84;20126;-70
2022/06/05 10:00:43;;;;;;;;;;;;;;;17.57;95.32;99523.06;1606478;86;20168;-69
2022/06/05 10:03:17;;;;;;;;;;;;;;;17.63;95.92;99524.97;1639374;86;21189;-67
2022/06/05 10:05:45;;;;;;;;;;;;;;;17.68;96.28;99522.75;1669845;85;20123;-67
2022/06/05 10:08:26;;;;;;;;;;;;;;;17.77;96.57;99529.48;1680820;85;20086;-66
2022/06/05 10:10:56;;;;;;;;;;;;;;;17.84;97.25;99526.05;1680939;85;20098;-66
2022/06/05 10:13:50;;;;;;;;;;;;;;;17.88;97.02;99528.32;1680774;85;20098;-66
2022/06/05 10:16:33;;;;;;;;;;;;;;;17.91;97.05;99529.75;1680891;85;20641;-67
2022/06/05 10:19:17;;;;;;;;;;;;;;;17.95;97.14;99536.77;1680678;85;20112;-68
2022/06/05 10:21:51;;;;;;;;;;;;;;;17.97;96.53;99532.46;1653436;85;20111;-70
2022/06/05 10:24:37;;;;;;;;;;;;;;;18.00;96.06;99539.26;1681044;85;20577;-68
2022/06/05 10:27:04;;;;;;;;;;;;;;;18.01;96.29;99536.11;1680835;85;20119;-68
2022/06/05 10:29:35;;;;;;;;;;;;;;;18.02;95.66;99541.89;1680875;84;22062;-71
2022/06/05 10:32:05;;;;;;;;;;;;;;;18.08;95.84;99538.23;1680956;85;20095;-71
2022/06/05 10:34:38;;;;;;;;;;;;;;;18.16;95.70;99538.59;1680931;85;20087;-71
2022/06/05 10:37:17;;;;;;;;;;;;;;;18.27;94.40;99537.42;1681077;84;20160;-70
2022/06/05 10:40:03;;;;;;;;;;;;;;;18.37;93.62;99538.22;1681064;85;20509;-68
2022/06/05 10:43:01;;;;;;;;;;;;;;;18.44;94.08;99539.16;1680940;85;21176;-69
2022/06/05 10:45:42;;;;;;;;;;;;;;;18.50;91.47;99539.62;1680828;85;20075;-70
2022/06/05 10:48:37;;;;;;;;;;;;;;;18.49;88.80;99533.85;1681020;85;20095;-68
2022/06/05 10:51:32;;;;;;;;;;;;;;;18.46;87.35;99534.63;1680942;85;20119;-71
2022/06/05 10:54:08;;;;;;;;;;;;;;;18.43;87.84;99534.77;1661961;85;20087;-70
2022/06/05 10:56:42;;;;;;;;;;;;;;;18.59;88.46;99538.80;1679736;85;21295;-71
2022/06/05 10:59:31;;;;;;;;;;;;;;;18.77;87.38;99547.50;1675721;85;20454;-71
2022/06/05 11:02:19;;;;;;;;;;;;;;;18.95;88.75;99550.01;1669085;85;20173;-72
2022/06/05 11:05:22;;;;;;;;;;;;;;;19.21;87.29;99549.80;1668765;86;20719;-69
2022/06/05 11:08:05;;;;;;;;;;;;;;;19.43;83.78;99551.75;1668844;86;20088;-69
2022/06/05 11:13:52;;;;;;;;;;;;;;;19.84;82.12;99545.77;1668660;86;20075;-68
2022/06/05 11:16:23;;;;;;;;;;;;;;;20.12;80.00;99545.34;1668798;86;20116;-69
2022/06/05 11:19:12;;;;;;;;;;;;;;;20.40;80.76;99542.89;1668803;86;20203;-70
2022/06/05 11:21:41;;;;;;;;;;;;;;;20.62;79.51;99547.30;1668761;86;20423;-69
2022/06/05 11:24:10;;;;;;;;;;;;;;;20.80;76.95;99546.86;1668998;86;20636;-69
2022/06/05 11:26:57;;;;;;;;;;;;;;;20.90;75.37;99549.53;1658206;86;20474;-70
2022/06/05 11:29:44;;;;;;;;;;;;;;;20.89;75.28;99554.31;1668610;84;20112;-72
2022/06/05 11:32:29;;;;;;;;;;;;;;;20.85;74.53;99554.08;1668737;86;20123;-70
2022/06/05 11:35:09;;;;;;;;;;;;;;;20.77;72.89;99553.23;1668896;85;20541;-68
2022/06/05 11:37:39;;;;;;;;;;;;;;;20.74;73.12;99554.80;1668734;86;21179;-68
2022/06/05 11:40:12;;;;;;;;;;;;;;;20.92;74.04;99555.53;1668497;85;20528;-69
2022/06/05 11:42:58;;;;;;;;;;;;;;;21.37;74.00;99555.75;1668571;86;20092;-68
2022/06/05 11:45:34;;;;;;;;;;;;;;;21.94;71.98;99557.47;1668524;85;20411;-69
2022/06/05 11:48:22;;;;;;;;;;;;;;;22.55;69.01;99552.88;1667621;86;20130;-69
2022/06/05 11:51:02;;;;;;;;;;;;;;;23.04;67.30;99550.80;1668782;86;21156;-68
2022/06/05 11:53:35;;;;;;;;;;;;;;;23.52;63.76;99545.54;1668783;85;20076;-68
2022/06/05 11:56:14;;;;;;;;;;;;;;;23.89;64.31;99549.26;1668687;85;20435;-69
2022/06/05 11:58:50;;;;;;;;;;;;;;;24.02;59.70;99551.82;1670591;85;20693;-70
2022/06/05 12:01:18;;;;;;;;;;;;;;;24.10;60.21;99544.78;1693353;85;20080;-70
2022/06/05 12:03:55;;;;;;;;;;;;;;;24.26;58.90;99547.95;1693447;85;21169;-69
2022/06/05 12:06:40;;;;;;;;;;;;;;;24.19;59.22;99539.54;1693512;85;20079;-69
2022/06/05 12:09:13;;;;;;;;;;;;;;;23.92;55.66;99546.25;1693420;85;20167;-70
2022/06/05 12:11:51;;;;;;;;;;;;;;;23.51;58.48;99543.94;1695659;83;20079;-67
2022/06/05 12:14:27;;;;;;;;;;;;;;;23.17;54.58;99549.16;1711860;83;20097;-67
2022/06/05 12:17:13;;;;;;;;;;;;;;;22.73;56.47;99547.53;1706203;83;20137;-69
2022/06/05 12:20:06;;;;;;;;;;;;;;;22.50;57.48;99549.11;1693882;85;20103;-68
2022/06/05 12:22:45;;;;;;;;;;;;;;;22.35;56.14;99551.86;1693702;85;20099;-68
2022/06/05 12:25:30;;;;;;;;;;;;;;;22.24;55.69;99555.81;1692318;84;20620;-70
2022/06/05 12:28:15;;;;;;;;;;;;;;;22.22;55.65;99550.61;1717088;83;20428;-70
2022/06/05 12:30:52;;;;;;;;;;;;;;;22.30;58.22;99549.45;1722326;82;20101;-70
2022/06/05 12:33:32;;;;;;;;;;;;;;;22.44;56.78;99545.09;1722243;83;20085;-72
2022/06/05 12:36:15;;;;;;;;;;;;;;;22.52;56.17;99545.31;1722539;83;20489;-71
2022/06/05 12:38:48;;;;;;;;;;;;;;;22.61;56.59;99535.31;1685324;83;20152;-71
2022/06/05 12:41:26;;;;;;;;;;;;;;;22.68;54.38;99541.52;1716465;83;20149;-69
2022/06/05 12:44:02;;;;;;;;;;;;;;;22.71;54.13;99535.13;1717277;83;21758;-70
2022/06/05 12:46:35;;;;;;;;;;;;;;;22.67;53.24;99530.92;1717031;83;20121;-71
2022/06/05 12:49:24;;;;;;;;;;;;;;;22.67;53.21;99526.73;1717183;83;20145;-69
2022/06/05 12:51:54;;;;;;;;;;;;;;;22.79;53.77;99524.78;1717167;83;20174;-70
2022/06/05 12:54:24;;;;;;;;;;;;;;;23.15;55.33;99518.56;1687948;83;20125;-71
2022/06/05 12:56:53;;;;;;;;;;;;;;;23.50;52.52;99519.93;1717353;83;21865;-70
2022/06/05 12:59:28;;;;;;;;;;;;;;;23.75;49.48;99518.47;1692716;83;20165;-71
2022/06/05 13:01:58;;;;;;;;;;;;;;;23.73;50.07;99520.08;1717083;83;20113;-69
2022/06/05 13:04:31;;;;;;;;;;;;;;;23.62;48.55;99524.34;1716535;83;20138;-69
2022/06/05 13:07:17;;;;;;;;;;;;;;;23.60;51.61;99521.14;1716979;83;20198;-70
2022/06/05 13:09:48;;;;;;;;;;;;;;;23.73;51.30;99520.08;1717247;83;21209;-68
2022/06/05 13:12:35;;;;;;;;;;;;;;;23.90;50.04;99512.22;1717298;83;20154;-68
2022/06/05 13:15:26;;;;;;;;;;;;;;;23.98;48.46;99513.19;1717271;83;20153;-69
2022/06/05 13:18:15;;;;;;;;;;;;;;;23.95;49.29;99501.38;1717217;83;20641;-69
2022/06/05 13:21:02;;;;;;;;;;;;;;;24.06;48.17;99500.53;1717253;83;20126;-68
2022/06/05 13:23:34;;;;;;;;;;;;;;;24.26;49.42;99511.48;1717122;83;21238;-68
2022/06/05 13:26:15;;;;;;;;;;;;;;;24.54;47.40;99507.69;1716967;83;20453;-68
2022/06/05 13:29:07;;;;;;;;;;;;;;;24.49;45.02;99501.11;1714931;83;20173;-68
2022/06/05 13:31:45;;;;;;;;;;;;;;;24.22;45.37;99507.88;1717255;83;20181;-68
2022/06/05 13:34:18;;;;;;;;;;;;;;;24.31;47.62;99507.63;1717758;83;20117;-68
2022/06/05 13:36:57;;;;;;;;;;;;;;;24.60;46.71;99504.05;1717252;83;21153;-68